createdAt,value
2016-02-17T00:00:17.027Z,90.21
2016-02-17T00:01:36.235Z,90.21
2016-02-17T00:02:17.032Z,90.02
2016-02-17T00:03:17.066Z,89.93
2016-02-17T00:04:29.787Z,89.83
2016-02-17T00:05:29.806Z,89.45
2016-02-17T00:06:36.280Z,89.36
2016-02-17T00:07:36.314Z,89.74
2016-02-17T00:08:17.096Z,89.83
2016-02-17T00:09:17.176Z,89.83
2016-02-17T00:10:17.116Z,89.74
2016-02-17T00:11:17.728Z,90.12
2016-02-17T00:12:29.888Z,90.31
2016-02-17T00:13:17.202Z,89.74
2016-02-17T00:14:17.174Z,89.74
2016-02-17T00:15:17.177Z,89.74
2016-02-17T00:16:29.914Z,89.74
2016-02-17T00:17:17.182Z,89.64
2016-02-17T00:19:29.843Z,89.83
2016-02-17T00:20:26.768Z,90.31
2016-02-17T00:21:26.770Z,89.93
2016-02-17T00:22:33.101Z,90.12
2016-02-17T00:23:39.528Z,90.21
2016-02-17T00:24:26.794Z,90.21
2016-02-17T00:25:26.828Z,90.12
2016-02-17T00:26:26.816Z,89.93
2016-02-17T00:27:26.850Z,90.02
2016-02-17T00:28:26.837Z,90.12
2016-02-17T00:30:41.880Z,90.97
2016-02-17T00:31:42.008Z,90.87
2016-02-17T00:32:41.886Z,90.78
2016-02-17T00:33:54.702Z,90.5
2016-02-17T00:34:54.657Z,91.16
2016-02-17T00:35:42.019Z,90.87
2016-02-17T00:36:41.929Z,91.25
2016-02-17T00:37:51.290Z,91.16
2016-02-17T00:38:45.012Z,90.68
2016-02-17T00:39:45.014Z,90.78
2016-02-17T00:40:45.627Z,90.59
2016-02-17T00:41:57.770Z,90.78
2016-02-17T00:42:45.663Z,90.78
2016-02-17T00:43:45.056Z,90.31
2016-02-17T00:44:46.496Z,90.12
2016-02-17T00:46:04.281Z,90.12
2016-02-17T00:46:57.877Z,90.02
2016-02-17T00:47:45.114Z,90.68
2016-02-17T00:48:45.101Z,90.59
2016-02-17T00:49:57.854Z,90.68
2016-02-17T00:50:45.122Z,90.78
2016-02-17T00:51:45.125Z,90.68
2016-02-17T00:52:45.752Z,90.68
2016-02-17T00:53:45.146Z,90.78
2016-02-17T00:54:45.148Z,90.87
2016-02-17T00:55:45.151Z,90.68
2016-02-17T00:56:45.185Z,90.97
2016-02-17T00:57:45.797Z,90.87
2016-02-17T00:58:45.222Z,91.53
2016-02-17T00:59:45.224Z,91.16
2016-02-17T01:00:45.211Z,90.59
2016-02-17T01:01:45.230Z,90.5
2016-02-17T01:03:04.436Z,89.83
2016-02-17T01:03:57.985Z,90.12
2016-02-17T01:06:19.631Z,90.12
2016-02-17T01:07:19.635Z,90.78
2016-02-17T01:08:34.824Z,91.06
2016-02-17T01:09:34.827Z,90.78
2016-02-17T01:10:34.813Z,91.06
2016-02-17T01:11:41.101Z,91.72
2016-02-17T01:12:34.851Z,91.53
2016-02-17T01:13:47.590Z,91.53
2016-02-17T01:14:34.918Z,91.63
2016-02-17T01:15:54.079Z,91.35
2016-02-17T01:16:50.707Z,91.44
2016-02-17T01:18:47.620Z,91.63
2016-02-17T01:19:47.637Z,91.72
2016-02-17T01:20:47.625Z,91.63
2016-02-17T01:21:47.658Z,92.19
2016-02-17T01:22:53.912Z,92.19
2016-02-17T01:23:47.851Z,92.52
2016-02-17T01:25:00.386Z,92.8
2016-02-17T01:25:47.670Z,93.09
2016-02-17T01:27:13.344Z,93.75
2016-02-17T01:27:57.222Z,93.28
2016-02-17T01:28:57.240Z,93.65
2016-02-17T01:30:09.961Z,93.18
2016-02-17T01:30:57.245Z,93.37
2016-02-17T01:32:16.452Z,93.56
2016-02-17T01:33:04.157Z,93.65
2016-02-17T01:33:57.285Z,93.84
2016-02-17T01:34:57.271Z,93.84
2016-02-17T01:35:57.306Z,93.28
2016-02-17T01:36:57.293Z,94.13
2016-02-17T01:37:57.311Z,93.84
2016-02-17T01:38:57.329Z,93.37
2016-02-17T01:40:10.066Z,93.56
2016-02-17T01:41:10.085Z,94.13
2016-02-17T01:41:57.353Z,93.94
2016-02-17T01:42:57.371Z,93.28
2016-02-17T01:43:57.452Z,92.57
2016-02-17T01:44:57.393Z,92.66
2016-02-17T01:45:57.379Z,92.76
2016-02-17T01:46:57.398Z,92.8
2016-02-17T01:47:57.401Z,92.47
2016-02-17T01:48:57.418Z,92.85
2016-02-17T01:49:57.437Z,92.71
2016-02-17T01:50:57.439Z,92.71
2016-02-17T01:51:57.458Z,92.57
2016-02-17T01:52:57.476Z,92.95
2016-02-17T01:53:57.448Z,92.57
2016-02-17T01:55:10.044Z,92.57
2016-02-17T01:55:57.469Z,92.85
2016-02-17T01:57:16.706Z,92.38
2016-02-17T01:57:57.506Z,92.47
2016-02-17T01:58:57.539Z,92.19
2016-02-17T01:59:57.511Z,92
2016-02-17T02:01:16.780Z,92.05
2016-02-17T02:01:57.532Z,91.91
2016-02-17T02:02:57.550Z,92
2016-02-17T02:04:03.818Z,92.19
2016-02-17T02:04:57.555Z,92.19
2016-02-17T02:05:57.574Z,92.29
2016-02-17T02:06:57.576Z,92.95
2016-02-17T02:07:57.595Z,92.57
2016-02-17T02:08:58.191Z,92.47
2016-02-17T02:10:10.350Z,92.8
2016-02-17T02:45:21.289Z,94.69
2016-02-17T02:45:46.948Z,94.69
2016-02-17T02:46:46.951Z,94.69
2016-02-17T02:47:47.172Z,94.98
2016-02-17T02:48:53.238Z,94.41
2016-02-17T02:49:59.755Z,94.51
2016-02-17T02:51:06.196Z,94.41
2016-02-17T02:52:06.214Z,94.22
2016-02-17T02:52:47.013Z,94.51
2016-02-17T02:53:50.079Z,94.6
2016-02-17T02:54:50.113Z,94.41
2016-02-17T02:55:50.116Z,94.41
2016-02-17T02:56:50.135Z,94.88
2016-02-17T02:58:02.949Z,94.69
2016-02-17T02:58:50.140Z,94.69
2016-02-17T02:59:50.142Z,95.07
2016-02-17T03:01:09.379Z,95.26
2016-02-17T03:01:50.209Z,94.79
2016-02-17T03:02:50.166Z,94.98
2016-02-17T03:03:50.184Z,94.88
2016-02-17T03:04:50.187Z,95.64
2016-02-17T03:05:51.626Z,95.36
2016-02-17T03:07:02.942Z,95.64
2016-02-17T03:07:50.445Z,95.36
2016-02-17T03:09:09.431Z,95.45
2016-02-17T03:10:02.966Z,95.54
2016-02-17T03:11:15.906Z,95.73
2016-02-17T03:11:50.253Z,96.01
2016-02-17T03:12:51.677Z,96.58
2016-02-17T03:14:01.195Z,96.3
2016-02-17T03:15:01.229Z,96.48
2016-02-17T03:16:01.233Z,96.39
2016-02-17T03:17:01.235Z,96.39
2016-02-17T03:18:13.972Z,96.58
2016-02-17T03:19:01.240Z,96.58
2016-02-17T03:20:20.446Z,96.58
2016-02-17T03:21:04.339Z,96.48
2016-02-17T03:22:30.029Z,96.58
2016-02-17T03:23:05.797Z,96.67
2016-02-17T03:24:35.660Z,96.67
2016-02-17T03:25:19.553Z,96.58
2016-02-17T03:26:19.555Z,97.05
2016-02-17T03:27:19.558Z,97.24
2016-02-17T03:28:20.171Z,97.14
2016-02-17T03:29:32.313Z,97.05
2016-02-17T03:30:38.801Z,96.86
2016-02-17T03:31:38.803Z,96.86
2016-02-17T03:32:45.278Z,96.67
2016-02-17T03:33:48.421Z,97.05
2016-02-17T03:34:29.249Z,97.24
2016-02-17T03:36:47.445Z,96.58
2016-02-17T03:37:44.416Z,96.67
2016-02-17T03:39:03.637Z,96.48
2016-02-17T03:39:47.562Z,97.05
2016-02-17T03:41:06.753Z,96.48
2016-02-17T03:42:00.302Z,96.77
2016-02-17T03:42:47.586Z,96.86
2016-02-17T03:44:13.244Z,96.39
2016-02-17T03:45:16.310Z,96.11
2016-02-17T03:45:57.266Z,96.01
2016-02-17T03:46:57.128Z,96.01
2016-02-17T03:48:13.786Z,96.58
2016-02-17T03:50:01.074Z,96.67
2016-02-17T03:51:01.076Z,96.67
2016-02-17T03:52:20.282Z,96.67
2016-02-17T03:53:01.097Z,96.58
2016-02-17T03:54:26.772Z,96.48
2016-02-17T03:55:23.383Z,96.39
2016-02-17T03:56:36.340Z,96.58
2016-02-17T03:57:14.577Z,96.58
2016-02-17T03:59:43.332Z,96.48
2016-02-17T04:00:24.146Z,96.67
2016-02-17T04:01:24.150Z,96.48
2016-02-17T04:02:24.199Z,96.58
2016-02-17T04:03:30.437Z,96.58
2016-02-17T04:04:30.440Z,96.67
2016-02-17T04:05:43.426Z,96.58
2016-02-17T04:06:24.195Z,96.3
2016-02-17T04:08:33.762Z,96.11
2016-02-17T04:09:33.781Z,96.01
2016-02-17T04:10:46.520Z,95.92
2016-02-17T04:11:33.786Z,95.83
2016-02-17T04:12:59.572Z,95.45
2016-02-17T04:14:12.138Z,95.73
2016-02-17T04:15:02.328Z,95.45
2016-02-17T04:16:05.503Z,95.64
2016-02-17T04:17:05.411Z,95.73
2016-02-17T04:18:06.867Z,95.73
2016-02-17T04:19:36.745Z,95.64
2016-02-17T04:20:14.763Z,95.45
2016-02-17T04:21:08.500Z,95.45
2016-02-17T04:22:23.753Z,95.36
2016-02-17T04:23:23.694Z,95.36
2016-02-17T04:24:26.774Z,95.26
2016-02-17T04:25:26.793Z,95.54
2016-02-17T04:26:26.811Z,95.73
2016-02-17T04:27:27.423Z,95.54
2016-02-17T04:28:52.553Z,96.11
2016-02-17T04:29:36.443Z,95.64
2016-02-17T04:30:58.746Z,95.45
2016-02-17T04:32:11.499Z,95.45
2016-02-17T04:32:58.018Z,95.54
2016-02-17T04:34:24.473Z,95.64
2016-02-17T04:34:58.788Z,95.64
2016-02-17T04:36:30.103Z,95.26
2016-02-17T04:37:14.106Z,94.79
2016-02-17T04:38:39.656Z,94.98
2016-02-17T04:39:23.534Z,94.98
2016-02-17T04:42:01.947Z,95.45
2016-02-17T04:42:40.181Z,95.17
2016-02-17T04:43:40.169Z,95.26
2016-02-17T04:44:43.250Z,95.26
2016-02-17T04:45:43.236Z,95.26
2016-02-17T04:46:43.240Z,95.64
2016-02-17T04:47:58.448Z,95.26
2016-02-17T04:48:58.436Z,95.45
2016-02-17T04:51:13.628Z,95.73
2016-02-17T04:52:13.631Z,95.73
2016-02-17T04:53:39.321Z,95.64
2016-02-17T04:54:23.183Z,95.64
2016-02-17T04:55:48.844Z,95.45
2016-02-17T04:57:04.035Z,95.73
2016-02-17T04:58:13.506Z,94.6
2016-02-17T04:59:13.415Z,94.51
2016-02-17T05:00:25.496Z,94.79
2016-02-17T05:01:13.436Z,94.79
2016-02-17T05:01:54.236Z,94.6
2016-02-17T05:03:19.691Z,94.98
2016-02-17T05:05:06.321Z,95.17
2016-02-17T05:06:06.356Z,95.64
2016-02-17T05:08:21.518Z,94.98
2016-02-17T05:09:21.552Z,94.98
2016-02-17T05:10:34.273Z,94.51
2016-02-17T05:12:56.015Z,94.41
2016-02-17T05:14:27.314Z,94.98
2016-02-17T05:15:11.178Z,94.6
2016-02-17T05:16:11.336Z,94.69
2016-02-17T05:17:11.417Z,94.69
2016-02-17T05:18:36.686Z,94.88
2016-02-17T05:19:20.547Z,94.51
2016-02-17T05:20:23.722Z,94.22
2016-02-17T05:21:23.677Z,94.69
2016-02-17T05:22:23.711Z,94.51
2016-02-17T05:23:36.417Z,94.51
2016-02-17T05:24:23.717Z,94.32
2016-02-17T05:25:49.423Z,94.88
2016-02-17T05:26:33.410Z,94.69
2016-02-17T05:29:39.965Z,94.88
2016-02-17T05:30:39.952Z,95.07
2016-02-17T05:31:39.971Z,95.07
2016-02-17T05:32:39.973Z,94.79
2016-02-17T05:33:39.991Z,94.51
2016-02-17T05:34:40.009Z,94.79
2016-02-17T05:35:40.027Z,94.98
2016-02-17T05:36:40.015Z,94.98
2016-02-17T05:37:40.018Z,95.36
2016-02-17T05:38:40.052Z,95.54
2016-02-17T05:39:40.054Z,95.17
2016-02-17T05:40:52.778Z,95.83
2016-02-17T05:41:40.059Z,94.69
2016-02-17T05:42:59.283Z,94.79
2016-02-17T05:43:40.111Z,94.69
2016-02-17T05:45:05.758Z,94.79
2016-02-17T05:46:16.761Z,94.69
2016-02-17T05:47:00.623Z,94.79
2016-02-17T05:48:19.875Z,94.32
2016-02-17T05:49:03.737Z,94.41
2016-02-17T05:50:50.883Z,94.32
2016-02-17T05:51:18.961Z,94.51
2016-02-17T05:54:34.189Z,94.13
2016-02-17T05:55:34.394Z,93.94
2016-02-17T05:56:46.944Z,94.51
2016-02-17T05:57:47.086Z,94.79
2016-02-17T05:58:34.230Z,94.13
2016-02-17T06:00:00.002Z,93.56
2016-02-17T06:01:09.567Z,93.56
2016-02-17T06:02:09.554Z,93.94
2016-02-17T06:03:09.696Z,93.37
2016-02-17T06:04:09.574Z,93.84
2016-02-17T06:05:28.796Z,94.51
2016-02-17T06:06:15.657Z,94.51
2016-02-17T06:07:33.411Z,94.32
2016-02-17T06:08:17.273Z,94.69
2016-02-17T06:09:36.494Z,94.6
2016-02-17T06:10:17.293Z,94.98
2016-02-17T06:11:30.093Z,94.51
2016-02-17T06:12:26.737Z,94.69
2016-02-17T06:15:02.089Z,95.26
2016-02-17T06:15:45.979Z,95.26
2016-02-17T06:16:45.997Z,95.36
2016-02-17T06:17:45.984Z,95.45
2016-02-17T06:18:58.756Z,95.07
2016-02-17T06:19:58.743Z,95.07
2016-02-17T06:21:05.230Z,94.41
2016-02-17T06:22:05.232Z,94.6
2016-02-17T06:23:14.767Z,94.79
2016-02-17T06:23:49.095Z,94.98
2016-02-17T06:25:26.537Z,95.36
2016-02-17T06:26:23.478Z,94.69
2016-02-17T06:27:36.214Z,95.07
2016-02-17T06:28:23.702Z,94.79
2016-02-17T06:29:49.266Z,95.07
2016-02-17T06:30:33.129Z,94.22
2016-02-17T06:31:52.413Z,94.32
2016-02-17T06:32:36.275Z,94.6
2016-02-17T06:34:01.983Z,94.32
2016-02-17T06:35:14.564Z,94.32
2016-02-17T06:36:42.832Z,94.22
2016-02-17T06:37:26.710Z,94.32
2016-02-17T06:38:26.728Z,94.13
2016-02-17T06:39:26.732Z,94.03
2016-02-17T06:40:32.985Z,94.41
2016-02-17T06:41:26.752Z,94.69
2016-02-17T06:42:45.958Z,94.32
2016-02-17T06:43:42.585Z,94.41
2016-02-17T06:44:29.838Z,94.41
2016-02-17T06:45:49.075Z,94.79
2016-02-17T06:46:31.328Z,94.22
2016-02-17T06:47:29.863Z,93.94
2016-02-17T06:48:42.599Z,93.75
2016-02-17T06:50:01.198Z,94.13
2016-02-17T06:50:48.089Z,94.32
2016-02-17T06:51:48.107Z,93.56
2016-02-17T06:53:13.784Z,93.84
2016-02-17T06:53:57.708Z,93.37
2016-02-17T06:55:16.915Z,93.09
2016-02-17T06:57:00.811Z,93.37
2016-02-17T06:58:00.797Z,93.47
2016-02-17T06:59:32.113Z,93.56
2016-02-17T07:00:10.366Z,93.75
2016-02-17T07:01:10.383Z,94.03
2016-02-17T07:02:16.716Z,94.22
2016-02-17T07:03:36.094Z,93.94
2016-02-17T07:04:20.001Z,94.13
2016-02-17T07:05:29.566Z,93.94
2016-02-17T07:06:29.585Z,93.94
2016-02-17T07:07:29.604Z,93.94
2016-02-17T07:08:29.607Z,94.79
2016-02-17T07:09:29.625Z,93.94
2016-02-17T07:10:42.362Z,93.94
2016-02-17T07:11:29.833Z,94.22
2016-02-17T07:12:48.852Z,94.32
2016-02-17T07:13:32.776Z,94.32
2016-02-17T07:15:42.437Z,93.75
2016-02-17T07:16:45.629Z,93.51
2016-02-17T07:18:55.804Z,93.84
2016-02-17T07:19:58.889Z,93.8
2016-02-17T07:20:58.891Z,93.89
2016-02-17T07:22:58.958Z,93.32
2016-02-17T07:23:30.583Z,92.85
2016-02-17T07:26:55.483Z,92.85
2016-02-17T07:27:55.486Z,92.1
2016-02-17T07:29:55.538Z,91.25
2016-02-17T07:30:08.353Z,90.87
2016-02-17T07:33:08.439Z,90.87
2016-02-17T07:34:21.192Z,91.25
2016-02-17T07:35:08.491Z,91.72
2016-02-17T07:36:27.697Z,91.72
2016-02-17T07:37:11.591Z,91.53
2016-02-17T07:40:23.833Z,91.91
2016-02-17T07:41:23.852Z,91.82
2016-02-17T07:42:23.869Z,91.72
2016-02-17T07:43:36.607Z,91.72
2016-02-17T07:44:30.141Z,91.25
2016-02-17T07:45:49.549Z,91.63
2016-02-17T07:47:05.399Z,90.97
2016-02-17T07:47:55.555Z,91.16
2016-02-17T07:49:08.292Z,90.78
2016-02-17T07:50:26.855Z,90.87
2016-02-17T07:51:05.107Z,90.87
2016-02-17T07:52:36.406Z,90.68
2016-02-17T07:53:20.924Z,91.06
2016-02-17T07:54:20.912Z,90.5
2016-02-17T07:55:20.908Z,90.59
2016-02-17T07:56:27.203Z,90.78
2016-02-17T07:57:20.934Z,90.87
2016-02-17T07:58:40.134Z,90.68
2016-02-17T07:59:33.694Z,90.02
2016-02-17T08:00:52.241Z,89.93
2016-02-17T08:01:30.461Z,90.07
2016-02-17T08:03:01.791Z,89.64
2016-02-17T08:04:11.340Z,89.88
2016-02-17T08:04:45.746Z,90.07
2016-02-17T08:07:26.517Z,90.16
2016-02-17T08:08:00.847Z,89.78
2016-02-17T08:10:10.429Z,90.26
2016-02-17T08:11:41.728Z,90.26
2016-02-17T08:12:46.387Z,89.78
2016-02-17T08:13:27.076Z,89.59
2016-02-17T08:16:07.974Z,89.59
2016-02-17T08:16:42.302Z,88.93
2016-02-17T08:18:57.496Z,88.65
2016-02-17T08:19:57.546Z,89.03
2016-02-17T08:22:39.679Z,88.37
2016-02-17T08:23:13.993Z,88.46
2016-02-17T08:25:23.608Z,89.12
2016-02-17T08:26:23.596Z,89.12
2016-02-17T08:27:23.818Z,88.84
2016-02-17T08:28:42.852Z,88.65
2016-02-17T08:29:36.369Z,88.46
2016-02-17T08:32:30.456Z,87.8
2016-02-17T08:33:30.379Z,87.71
2016-02-17T08:34:30.430Z,87.8
2016-02-17T08:35:30.417Z,87.71
2016-02-17T08:36:43.154Z,87.14
2016-02-17T08:37:43.172Z,87.05
2016-02-17T08:38:30.487Z,86.95
2016-02-17T08:39:49.678Z,86.38
2016-02-17T08:41:01.774Z,86.86
2016-02-17T08:41:31.886Z,86.76
2016-02-17T08:42:30.498Z,86.76
2016-02-17T08:43:40.689Z,86.43
2016-02-17T08:45:55.851Z,86.33
2016-02-17T08:46:55.869Z,86.33
2016-02-17T08:47:55.872Z,86.33
2016-02-17T08:49:08.640Z,86.33
2016-02-17T08:49:55.892Z,86.8
2016-02-17T08:51:15.116Z,86.24
2016-02-17T08:51:55.913Z,85.96
2016-02-17T08:53:52.918Z,85.96
2016-02-17T08:54:11.780Z,85.77
2016-02-17T08:56:27.583Z,85.68
2016-02-17T08:59:08.572Z,85.2
2016-02-17T08:59:42.904Z,85.2
2016-02-17T09:02:23.787Z,84.92
2016-02-17T09:02:58.115Z,84.82
2016-02-17T09:05:38.826Z,84.64
2016-02-17T09:06:13.157Z,84.2
2016-02-17T09:07:45.081Z,83.54
2016-02-17T09:08:28.974Z,83.36
2016-02-17T09:09:28.993Z,82.79
2016-02-17T09:10:35.276Z,82.88
2016-02-17T09:11:41.748Z,82.88
2016-02-17T09:12:29.016Z,82.6
2016-02-17T09:13:54.707Z,82.22
2016-02-17T09:14:38.585Z,81.84
2016-02-17T09:16:04.368Z,81.74
2016-02-17T09:16:48.418Z,81.56
2016-02-17T09:18:10.702Z,81.74
2016-02-17T09:19:07.298Z,81.65
2016-02-17T09:20:07.300Z,80.99
2016-02-17T09:21:20.041Z,81.84
2016-02-17T09:22:07.338Z,80.9
2016-02-17T09:23:33.125Z,80.8
2016-02-17T09:24:36.205Z,81.09
2016-02-17T09:25:17.005Z,80.62
2016-02-17T09:28:45.793Z,79.76
2016-02-17T09:29:45.781Z,80.14
2016-02-17T09:31:17.099Z,80.33
2016-02-17T09:32:00.990Z,80.14
2016-02-17T09:33:20.198Z,80.33
2016-02-17T09:34:01.026Z,80.14
2016-02-17T09:35:32.328Z,80.14
2016-02-17T09:36:16.191Z,79.95
2016-02-17T09:37:16.210Z,80.08
2016-02-17T09:38:17.649Z,79.38
2016-02-17T09:40:31.420Z,79.29
2016-02-17T09:41:31.407Z,79.52
2016-02-17T09:42:31.426Z,78.39
2016-02-17T09:43:44.178Z,78.67
2016-02-17T09:44:32.071Z,78.86
2016-02-17T09:45:31.480Z,78.86
2016-02-17T09:46:31.467Z,78.48
2016-02-17T09:47:44.220Z,78.2
2016-02-17T09:48:51.317Z,78.67
2016-02-17T09:49:57.178Z,78.39
2016-02-17T09:51:02.822Z,78.29
2016-02-17T09:52:12.372Z,79.05
2016-02-17T09:52:46.703Z,78.86
2016-02-17T09:54:59.333Z,79.24
2016-02-17T09:56:27.572Z,79.52
2016-02-17T09:56:59.322Z,79.9
2016-02-17T09:58:30.641Z,79.9
2016-02-17T09:59:15.159Z,79.61
2016-02-17T10:00:15.146Z,79.71
2016-02-17T10:01:16.586Z,79.61
2016-02-17T10:02:15.183Z,80.27
2016-02-17T10:03:15.201Z,79.71
2016-02-17T10:04:21.562Z,79.99
2016-02-17T10:05:15.221Z,79.71
2016-02-17T10:06:15.287Z,80.65
2016-02-17T10:07:15.227Z,80.46
2016-02-17T10:08:15.245Z,79.9
2016-02-17T10:09:21.513Z,79.9
2016-02-17T10:10:46.579Z,80.27
2016-02-17T10:11:58.425Z,80.37
2016-02-17T10:12:32.100Z,79.99
2016-02-17T10:13:32.118Z,80.27
2016-02-17T10:14:44.870Z,79.99
2016-02-17T10:15:38.421Z,79.9
2016-02-17T10:16:51.361Z,79.71
2016-02-17T10:17:35.223Z,79.61
2016-02-17T10:19:00.897Z,79.61
2016-02-17T10:19:44.978Z,79.33
2016-02-17T10:22:19.345Z,78.86
2016-02-17T10:23:19.364Z,78.39
2016-02-17T10:24:51.382Z,78.67
2016-02-17T10:25:35.275Z,78.67
2016-02-17T10:26:35.294Z,78.39
2016-02-17T10:27:35.297Z,78.39
2016-02-17T10:28:36.736Z,78.67
2016-02-17T10:29:48.067Z,78.86
2016-02-17T10:30:38.367Z,78.86
2016-02-17T10:32:01.277Z,78.86
2016-02-17T10:32:48.107Z,78.67
2016-02-17T10:34:01.110Z,78.39
2016-02-17T10:34:44.972Z,77.91
2016-02-17T10:35:44.990Z,77.53
2016-02-17T10:37:04.227Z,77.44
2016-02-17T10:38:00.886Z,76.87
2016-02-17T10:39:07.139Z,76.82
2016-02-17T10:40:00.908Z,76.63
2016-02-17T10:41:13.644Z,76.63
2016-02-17T10:42:13.663Z,76.44
2016-02-17T10:43:00.963Z,76.82
2016-02-17T10:44:20.313Z,76.91
2016-02-17T10:45:05.740Z,76.44
2016-02-17T10:47:40.159Z,75.59
2016-02-17T10:49:11.256Z,75.21
2016-02-17T10:49:55.164Z,75.02
2016-02-17T10:51:20.825Z,74.93
2016-02-17T10:52:30.436Z,74.64
2016-02-17T10:53:04.877Z,74.64
2016-02-17T10:55:27.086Z,74.64
2016-02-17T10:56:14.353Z,72.94
2016-02-17T10:57:33.569Z,73.03
2016-02-17T10:58:14.369Z,72.75
2016-02-17T11:00:29.640Z,72.18
2016-02-17T11:01:29.627Z,71.8
2016-02-17T11:03:00.960Z,69.82
2016-02-17T11:03:44.869Z,69.09
2016-02-17T11:04:44.872Z,69
2016-02-17T11:06:16.171Z,67.77
2016-02-17T11:07:00.034Z,67.68
2016-02-17T11:08:00.052Z,67.01
2016-02-17T11:09:00.070Z,66.44
2016-02-17T11:10:06.340Z,66.73
2016-02-17T11:11:00.154Z,65.88
2016-02-17T11:12:12.876Z,65.59
2016-02-17T11:13:06.518Z,66.53
2016-02-17T11:14:19.334Z,65.5
2016-02-17T11:15:00.196Z,65.4
2016-02-17T11:16:25.840Z,65.69
2016-02-17T11:17:35.421Z,65.78
2016-02-17T11:18:09.767Z,65.12
2016-02-17T11:19:09.785Z,64.45
2016-02-17T11:20:22.506Z,65.12
2016-02-17T11:21:09.790Z,64.83
2016-02-17T11:22:35.481Z,64.64
2016-02-17T11:24:19.377Z,64.74
2016-02-17T11:25:19.239Z,64.45
2016-02-17T11:27:29.166Z,64.93
2016-02-17T11:28:29.200Z,64.64
2016-02-17T11:29:29.172Z,63.98
2016-02-17T11:30:42.034Z,64.45
2016-02-17T11:31:35.567Z,64.55
2016-02-17T11:32:29.242Z,64.93
2016-02-17T11:33:41.964Z,64.26
2016-02-17T11:34:54.953Z,63.6
2016-02-17T11:35:51.535Z,64.36
2016-02-17T11:36:38.816Z,64.74
2016-02-17T11:37:58.024Z,64.26
2016-02-17T11:39:13.198Z,64.74
2016-02-17T11:39:57.060Z,64.93
2016-02-17T11:40:57.094Z,64.26
2016-02-17T11:42:28.394Z,64.45
2016-02-17T11:43:12.507Z,64.83
2016-02-17T11:44:12.524Z,64.74
2016-02-17T11:45:15.605Z,63.7
2016-02-17T11:46:41.312Z,64.55
2016-02-17T11:47:25.221Z,63.51
2016-02-17T11:48:25.239Z,63.7
2016-02-17T11:51:06.091Z,63.98
2016-02-17T11:51:40.419Z,64.26
2016-02-17T11:53:55.659Z,65.59
2016-02-17T11:54:55.693Z,65.78
2016-02-17T11:57:10.888Z,65.31
2016-02-17T11:58:10.890Z,65.5
2016-02-17T11:59:36.582Z,65.69
2016-02-17T12:00:20.459Z,66.16
2016-02-17T12:01:20.461Z,66.35
2016-02-17T12:02:20.481Z,65.69
2016-02-17T12:03:20.498Z,65.59
2016-02-17T12:04:33.251Z,65.31
2016-02-17T12:05:26.805Z,64.74
2016-02-17T12:06:39.745Z,65.12
2016-02-17T12:07:33.294Z,64.64
2016-02-17T12:08:51.875Z,64.45
2016-02-17T12:09:35.785Z,64.45
2016-02-17T12:11:01.428Z,63.7
2016-02-17T12:12:16.605Z,63.79
2016-02-17T12:13:13.264Z,63.6
2016-02-17T12:14:22.814Z,63.89
2016-02-17T12:15:22.832Z,62.94
2016-02-17T12:18:03.700Z,63.6
2016-02-17T12:18:38.028Z,63.35
2016-02-17T12:21:18.880Z,63.6
2016-02-17T12:21:53.224Z,62.75
2016-02-17T12:24:02.791Z,62.97
2016-02-17T12:25:02.793Z,63.16
2016-02-17T12:26:02.828Z,62.88
2016-02-17T12:27:03.427Z,62.69
2016-02-17T12:28:03.445Z,62.4
2016-02-17T12:29:15.588Z,62.4
2016-02-17T12:30:03.482Z,62.4
2016-02-17T12:31:22.094Z,62.4
2016-02-17T12:32:18.722Z,62.5
2016-02-17T12:33:31.834Z,62.02
2016-02-17T12:34:41.399Z,61.36
2016-02-17T12:36:56.639Z,61.46
2016-02-17T12:37:56.750Z,61.27
2016-02-17T12:40:11.869Z,60.13
2016-02-17T12:41:11.871Z,60.22
2016-02-17T12:42:11.874Z,59.94
2016-02-17T12:43:21.486Z,59.09
2016-02-17T12:44:47.129Z,59.47
2016-02-17T12:45:27.741Z,59.09
2016-02-17T12:47:36.684Z,59
2016-02-17T12:48:36.702Z,58.43
2016-02-17T12:49:49.455Z,57.29
2016-02-17T12:50:36.723Z,57.29
2016-02-17T12:52:02.413Z,57.86
2016-02-17T12:52:49.510Z,57.2
2016-02-17T12:55:43.112Z,57.2
2016-02-17T12:56:43.114Z,57.2
2016-02-17T12:57:43.117Z,55.87
2016-02-17T12:59:11.903Z,56.53
2016-02-17T12:59:58.825Z,56.82
2016-02-17T13:02:39.739Z,56.91
2016-02-17T13:03:39.759Z,56.63
2016-02-17T13:04:46.026Z,56.72
2016-02-17T13:05:39.811Z,56.25
2016-02-17T13:06:52.547Z,55.96
2016-02-17T13:07:52.566Z,55.96
2016-02-17T13:10:08.589Z,55.49
2016-02-17T13:11:08.607Z,55.4
2016-02-17T13:13:30.082Z,54.55
2016-02-17T13:14:23.819Z,54.35
2016-02-17T13:15:36.571Z,54.55
2016-02-17T13:16:23.840Z,53.69
2016-02-17T13:17:43.061Z,53.13
2016-02-17T13:18:25.299Z,53.22
2016-02-17T13:21:04.775Z,53.97
2016-02-17T13:21:39.118Z,53.69
2016-02-17T13:23:51.890Z,53.59
2016-02-17T13:24:39.173Z,53.5
2016-02-17T13:25:51.896Z,53.13
2016-02-17T13:26:39.773Z,53.03
2016-02-17T13:28:04.857Z,53.13
2016-02-17T13:28:48.716Z,53.69
2016-02-17T13:32:00.896Z,54.35
2016-02-17T13:33:00.914Z,54.74
2016-02-17T13:34:07.872Z,53.97
2016-02-17T13:35:00.950Z,53.41
2016-02-17T13:36:20.175Z,53.13
2016-02-17T13:37:16.787Z,53.69
2016-02-17T13:38:16.789Z,53.78
2016-02-17T13:39:16.839Z,53.5
2016-02-17T13:40:29.702Z,53.59
2016-02-17T13:41:18.266Z,54.74
2016-02-17T13:42:42.535Z,54.07
2016-02-17T13:43:29.443Z,53.03
2016-02-17T13:44:48.666Z,53.78
2016-02-17T13:47:02.702Z,54.64
2016-02-17T13:49:13.913Z,54.55
2016-02-17T13:50:17.041Z,54.55
2016-02-17T13:51:42.731Z,54.83
2016-02-17T13:53:41.877Z,54.64
2016-02-17T13:54:41.879Z,54.55
2016-02-17T13:55:41.883Z,54.35
2016-02-17T13:56:42.041Z,54.45
2016-02-17T13:57:51.576Z,54.74
2016-02-17T13:59:17.299Z,55.02
2016-02-17T13:59:55.565Z,54.55
2016-02-17T14:01:26.898Z,55.21
2016-02-17T14:02:10.792Z,54.74
2016-02-17T14:03:10.701Z,55.11
2016-02-17T14:04:12.250Z,54.74
2016-02-17T14:05:23.597Z,52.84
2016-02-17T14:06:10.881Z,53.13
2016-02-17T14:09:12.358Z,53.78
2016-02-17T14:10:37.703Z,54.26
2016-02-17T14:11:23.019Z,54.35
2016-02-17T14:12:42.241Z,54.93
2016-02-17T14:13:23.665Z,53.59
2016-02-17T14:14:23.059Z,53.31
2016-02-17T14:15:23.077Z,53.31
2016-02-17T14:16:23.110Z,53.69
2016-02-17T14:17:23.097Z,53.97
2016-02-17T14:18:35.866Z,54.64
2016-02-17T14:19:35.869Z,54.74
2016-02-17T14:20:48.824Z,54.26
2016-02-17T14:21:42.358Z,53.22
2016-02-17T14:23:51.911Z,53.31
2016-02-17T14:24:26.258Z,53.22
2016-02-17T14:25:57.588Z,52.94
2016-02-17T14:26:29.356Z,53.22
2016-02-17T14:28:44.581Z,53.22
2016-02-17T14:29:44.645Z,53.03
2016-02-17T14:30:44.617Z,52.18
2016-02-17T14:31:44.635Z,52.27
2016-02-17T14:32:44.653Z,53.03
2016-02-17T14:33:57.438Z,53.13
2016-02-17T14:34:44.690Z,53.03
2016-02-17T14:35:44.895Z,53.31
2016-02-17T14:36:57.446Z,53.5
2016-02-17T14:38:16.014Z,53.69
2016-02-17T14:39:03.936Z,53.97
2016-02-17T14:39:44.750Z,53.88
2016-02-17T14:41:10.428Z,54.45
2016-02-17T14:41:48.662Z,54.55
2016-02-17T14:43:14.371Z,54.07
2016-02-17T14:43:58.246Z,53.78
2016-02-17T14:44:58.280Z,53.97
2016-02-17T14:45:58.266Z,53.78
2016-02-17T14:46:58.301Z,53.78
2016-02-17T14:47:58.319Z,53.88
2016-02-17T14:49:17.558Z,53.69
2016-02-17T14:50:11.093Z,53.59
2016-02-17T14:52:32.958Z,53.15
2016-02-17T14:53:13.773Z,53.22
2016-02-17T14:54:45.071Z,53.72
2016-02-17T14:55:28.966Z,53.69
2016-02-17T14:56:54.671Z,53.34
2016-02-17T14:57:32.955Z,53.44
2016-02-17T14:58:58.645Z,52.96
2016-02-17T14:59:36.914Z,53.25
2016-02-17T15:01:52.091Z,53.15
2016-02-17T15:02:52.110Z,53.06
2016-02-17T15:03:51.956Z,52.77
2016-02-17T15:05:01.552Z,53.34
2016-02-17T15:08:14.375Z,51.35
2016-02-17T15:09:14.394Z,51.26
2016-02-17T15:10:14.365Z,51.35
2016-02-17T15:11:27.134Z,51.26
2016-02-17T15:12:27.136Z,51.54
2016-02-17T15:13:33.607Z,51.07
2016-02-17T15:14:14.422Z,51.73
2016-02-17T15:16:49.506Z,52.39
2016-02-17T15:18:20.824Z,53.34
2016-02-17T15:18:59.168Z,53.53
2016-02-17T15:19:59.108Z,53.81
2016-02-17T15:21:11.864Z,53.06
2016-02-17T15:21:59.145Z,53.34
2016-02-17T15:23:18.540Z,53.72
2016-02-17T15:23:59.165Z,53.91
2016-02-17T15:25:30.484Z,53.91
2016-02-17T15:25:59.187Z,54.28
2016-02-17T15:26:59.220Z,54.28
2016-02-17T15:27:59.224Z,54.76